Погода Панчималькона неделю

Сан-Сальвадор, Сальвадор

23 - 29 февраля
  • 23февраля
    Сегодня
    +18°
    +30°
    Ясно и безоблачно
    ВремяПогодаТемператураВлажностьДавлениеВетер, м/сВероятность осадков
    00:00Ясно и безоблачно+21°C75 %710 мм1.0 м/с2 %
    03:00Ясно и безоблачно+19°C83 %708 мм1.2 м/с2 %
    06:00Ясно и безоблачно+19°C77 %709 мм1.0 м/с2 %
    09:00Ясно и безоблачно+26°C41 %711 мм2.3 м/с2 %
    12:00Ясно и безоблачно+30°C46 %711 мм3.7 м/с2 %
    15:00Ясно и безоблачно+28°C54 %709 мм4.7 м/с2 %
    18:00Ясно и безоблачно+23°C71 %708 мм3.4 м/с2 %
    21:00Ясно и безоблачно+19°C83 %710 мм0.8 м/с2 %
  • 24февраля
    Суббота
    +18°
    +34°
    Ясно и безоблачно
    ВремяПогодаТемператураВлажностьДавлениеВетер, м/сВероятность осадков
    00:00Ясно и безоблачно+19°C92 %709 мм1.1 м/с2 %
    03:00Ясно и безоблачно+19°C93 %709 мм1.5 м/с2 %
    06:00Ясно и безоблачно+18°C94 %710 мм2.0 м/с2 %
    09:00Ясно и безоблачно+27°C43 %712 мм2.7 м/с2 %
    12:00Ясно и безоблачно+32°C25 %712 мм2.5 м/с2 %
    15:00Ясно и безоблачно+33°C28 %710 мм1.5 м/с2 %
    18:00Ясно и безоблачно+25°C57 %710 мм0.7 м/с2 %
    21:00Ясно и безоблачно+22°C51 %711 мм2.1 м/с2 %
  • 25февраля
    Воскресенье
    +17°
    +34°
    Ясно и безоблачно
    ВремяПогодаТемператураВлажностьДавлениеВетер, м/сВероятность осадков
    00:00Ясно и безоблачно+20°C60 %711 мм2.7 м/с2 %
    03:00Ясно и безоблачно+19°C71 %710 мм3.3 м/с2 %
    06:00Ясно и безоблачно+18°C77 %711 мм3.8 м/с2 %
    09:00Ясно и безоблачно+26°C46 %713 мм2.8 м/с2 %
    12:00Ясно и безоблачно+33°C29 %713 мм1.1 м/с2 %
    15:00Ясно и безоблачно+30°C40 %710 мм2.6 м/с2 %
    18:00Ясно и безоблачно+25°C63 %710 мм0.8 м/с2 %
    21:00Ясно и безоблачно+21°C67 %711 мм1.5 м/с2 %
  • 26февраля
    Понедельник
    +18°
    +32°
    Ясно и безоблачно
    ВремяПогодаТемператураВлажностьДавлениеВетер, м/сВероятность осадков
    00:00Ясно и безоблачно+20°C71 %711 мм2.6 м/с2 %
    03:00Ясно и безоблачно+19°C76 %710 мм2.9 м/с2 %
    06:00Ясно и безоблачно+18°C81 %711 мм2.6 м/с2 %
    09:00Ясно и безоблачно+26°C43 %713 мм1.5 м/с2 %
    12:00Ясно и безоблачно+32°C29 %713 мм1.3 м/с2 %
    15:00Ясно и безоблачно+30°C34 %710 мм3.2 м/с2 %
    18:00Ясно и безоблачно+25°C44 %710 мм1.7 м/с2 %
    21:00Ясно и безоблачно+21°C61 %710 мм1.3 м/с2 %
  • 27февраля
    Вторник
    +21°
    +33°
    Ясно и безоблачно
    ВремяПогодаТемператураВлажностьДавлениеВетер, м/сВероятность осадков
    00:00Ясно и безоблачно+20°C72 %710 мм1.7 м/с2 %
    03:00Ясно и безоблачно+19°C81 %709 мм2.5 м/с2 %
    06:00Ясно и безоблачно+18°C88 %710 мм2.5 м/с2 %
    09:00Ясно и безоблачно+27°C45 %712 мм1.3 м/с2 %
    12:00Ясно и безоблачно+32°C32 %711 мм1.6 м/с2 %
    15:00Ясно и безоблачно+31°C38 %709 мм3.8 м/с2 %
    18:00Ясно и безоблачно+26°C46 %709 мм1.4 м/с2 %
    21:00Ясно и безоблачно+22°C45 %709 мм1.2 м/с2 %
Мы используем cookies
Соглашаюсь